sensor_id;sensor_type;location;lat;lon;timestamp;P1;durP1;ratioP1;P2;durP2;ratioP2
82806;SDS011;72563;44.816;20.484;2024-01-11T00:00:29;62.05;;;22.92;;
82806;SDS011;72563;44.816;20.484;2024-01-11T00:02:54;54.83;;;20.42;;
82806;SDS011;72563;44.816;20.484;2024-01-11T00:05:20;57.45;;;19.55;;
82806;SDS011;72563;44.816;20.484;2024-01-11T00:07:46;55.28;;;19.67;;
82806;SDS011;72563;44.816;20.484;2024-01-11T00:10:12;58.33;;;20.70;;
82806;SDS011;72563;44.816;20.484;2024-01-11T00:12:38;54.85;;;20.60;;
82806;SDS011;72563;44.816;20.484;2024-01-11T00:15:03;61.92;;;20.20;;
82806;SDS011;72563;44.816;20.484;2024-01-11T00:17:29;57.60;;;20.90;;
82806;SDS011;72563;44.816;20.484;2024-01-11T00:19:54;46.50;;;19.02;;
82806;SDS011;72563;44.816;20.484;2024-01-11T00:22:20;52.17;;;19.00;;
82806;SDS011;72563;44.816;20.484;2024-01-11T00:24:46;66.10;;;21.17;;
82806;SDS011;72563;44.816;20.484;2024-01-11T00:27:11;58.72;;;21.02;;
82806;SDS011;72563;44.816;20.484;2024-01-11T00:29:37;55.17;;;18.70;;
82806;SDS011;72563;44.816;20.484;2024-01-11T00:32:02;52.45;;;20.73;;
82806;SDS011;72563;44.816;20.484;2024-01-11T00:34:28;57.13;;;21.52;;
82806;SDS011;72563;44.816;20.484;2024-01-11T00:36:54;53.47;;;18.80;;
82806;SDS011;72563;44.816;20.484;2024-01-11T00:39:20;57.33;;;18.98;;
82806;SDS011;72563;44.816;20.484;2024-01-11T00:41:46;55.28;;;20.77;;
82806;SDS011;72563;44.816;20.484;2024-01-11T00:44:11;59.35;;;20.10;;
82806;SDS011;72563;44.816;20.484;2024-01-11T00:46:37;58.92;;;21.83;;
82806;SDS011;72563;44.816;20.484;2024-01-11T00:49:03;60.17;;;20.75;;
82806;SDS011;72563;44.816;20.484;2024-01-11T00:51:29;51.83;;;19.42;;
82806;SDS011;72563;44.816;20.484;2024-01-11T00:53:55;54.78;;;19.63;;
82806;SDS011;72563;44.816;20.484;2024-01-11T00:56:20;53.63;;;18.25;;
82806;SDS011;72563;44.816;20.484;2024-01-11T00:58:46;56.25;;;20.23;;
82806;SDS011;72563;44.816;20.484;2024-01-11T01:01:12;54.97;;;19.25;;
82806;SDS011;72563;44.816;20.484;2024-01-11T01:03:38;52.20;;;19.33;;
82806;SDS011;72563;44.816;20.484;2024-01-11T01:06:04;47.35;;;18.17;;
82806;SDS011;72563;44.816;20.484;2024-01-11T01:08:31;48.08;;;16.95;;
82806;SDS011;72563;44.816;20.484;2024-01-11T01:10:56;46.10;;;17.17;;
82806;SDS011;72563;44.816;20.484;2024-01-11T01:13:22;43.88;;;17.27;;
82806;SDS011;72563;44.816;20.484;2024-01-11T01:15:48;50.95;;;19.25;;
82806;SDS011;72563;44.816;20.484;2024-01-11T01:18:13;55.30;;;19.70;;
82806;SDS011;72563;44.816;20.484;2024-01-11T01:20:39;52.10;;;18.23;;
82806;SDS011;72563;44.816;20.484;2024-01-11T01:23:05;50.80;;;18.83;;
82806;SDS011;72563;44.816;20.484;2024-01-11T01:25:30;51.38;;;18.13;;
82806;SDS011;72563;44.816;20.484;2024-01-11T01:27:57;55.17;;;18.02;;
82806;SDS011;72563;44.816;20.484;2024-01-11T01:30:24;51.85;;;18.63;;
82806;SDS011;72563;44.816;20.484;2024-01-11T01:32:50;50.47;;;18.10;;
82806;SDS011;72563;44.816;20.484;2024-01-11T01:35:15;48.03;;;16.52;;
82806;SDS011;72563;44.816;20.484;2024-01-11T01:37:41;49.38;;;17.13;;
82806;SDS011;72563;44.816;20.484;2024-01-11T01:40:08;45.65;;;16.30;;
82806;SDS011;72563;44.816;20.484;2024-01-11T01:42:34;41.35;;;14.77;;
82806;SDS011;72563;44.816;20.484;2024-01-11T01:44:59;48.67;;;17.42;;
82806;SDS011;72563;44.816;20.484;2024-01-11T01:47:25;35.60;;;14.88;;
82806;SDS011;72563;44.816;20.484;2024-01-11T01:49:52;41.95;;;14.55;;
82806;SDS011;72563;44.816;20.484;2024-01-11T01:52:19;41.03;;;15.48;;
82806;SDS011;72563;44.816;20.484;2024-01-11T01:54:47;46.60;;;16.20;;
82806;SDS011;72563;44.816;20.484;2024-01-11T01:57:14;39.35;;;14.63;;
82806;SDS011;72563;44.816;20.484;2024-01-11T01:59:41;45.53;;;16.55;;
82806;SDS011;72563;44.816;20.484;2024-01-11T02:02:08;49.70;;;15.43;;
82806;SDS011;72563;44.816;20.484;2024-01-11T02:04:35;43.40;;;15.70;;
82806;SDS011;72563;44.816;20.484;2024-01-11T02:07:01;42.20;;;15.93;;
82806;SDS011;72563;44.816;20.484;2024-01-11T02:09:27;48.42;;;16.27;;
82806;SDS011;72563;44.816;20.484;2024-01-11T02:11:53;47.25;;;15.20;;
82806;SDS011;72563;44.816;20.484;2024-01-11T02:14:19;32.40;;;13.60;;
82806;SDS011;72563;44.816;20.484;2024-01-11T02:16:46;37.85;;;14.75;;
82806;SDS011;72563;44.816;20.484;2024-01-11T02:19:15;38.72;;;14.50;;
82806;SDS011;72563;44.816;20.484;2024-01-11T02:21:44;46.10;;;15.65;;
82806;SDS011;72563;44.816;20.484;2024-01-11T02:26:44;44.95;;;13.90;;
82806;SDS011;72563;44.816;20.484;2024-01-11T02:29:26;40.85;;;14.60;;
82806;SDS011;72563;44.816;20.484;2024-01-11T02:31:53;40.97;;;14.63;;
82806;SDS011;72563;44.816;20.484;2024-01-11T02:34:19;38.92;;;15.98;;
82806;SDS011;72563;44.816;20.484;2024-01-11T02:36:46;44.70;;;16.38;;
82806;SDS011;72563;44.816;20.484;2024-01-11T02:39:11;46.55;;;16.33;;
82806;SDS011;72563;44.816;20.484;2024-01-11T02:41:40;36.83;;;14.80;;
82806;SDS011;72563;44.816;20.484;2024-01-11T02:44:07;43.47;;;14.95;;
82806;SDS011;72563;44.816;20.484;2024-01-11T02:46:32;44.63;;;14.95;;
82806;SDS011;72563;44.816;20.484;2024-01-11T02:48:58;41.13;;;15.77;;
82806;SDS011;72563;44.816;20.484;2024-01-11T02:51:23;42.83;;;14.40;;
82806;SDS011;72563;44.816;20.484;2024-01-11T02:53:49;42.95;;;14.02;;
82806;SDS011;72563;44.816;20.484;2024-01-11T02:56:14;41.85;;;14.90;;
82806;SDS011;72563;44.816;20.484;2024-01-11T02:58:40;49.55;;;16.92;;
82806;SDS011;72563;44.816;20.484;2024-01-11T03:01:06;45.38;;;17.15;;
82806;SDS011;72563;44.816;20.484;2024-01-11T03:03:31;46.17;;;15.18;;
82806;SDS011;72563;44.816;20.484;2024-01-11T03:05:57;46.15;;;15.73;;
82806;SDS011;72563;44.816;20.484;2024-01-11T03:08:22;48.17;;;15.60;;
82806;SDS011;72563;44.816;20.484;2024-01-11T03:10:48;44.83;;;15.15;;
82806;SDS011;72563;44.816;20.484;2024-01-11T03:13:13;42.60;;;15.55;;
82806;SDS011;72563;44.816;20.484;2024-01-11T03:15:39;41.60;;;15.20;;
82806;SDS011;72563;44.816;20.484;2024-01-11T03:18:04;48.67;;;14.77;;
82806;SDS011;72563;44.816;20.484;2024-01-11T03:20:30;43.10;;;15.77;;
82806;SDS011;72563;44.816;20.484;2024-01-11T03:22:55;43.85;;;16.45;;
82806;SDS011;72563;44.816;20.484;2024-01-11T03:25:21;45.90;;;15.73;;
82806;SDS011;72563;44.816;20.484;2024-01-11T03:27:47;42.78;;;15.48;;
82806;SDS011;72563;44.816;20.484;2024-01-11T03:30:12;47.63;;;16.58;;
82806;SDS011;72563;44.816;20.484;2024-01-11T03:32:38;46.88;;;16.15;;
82806;SDS011;72563;44.816;20.484;2024-01-11T03:35:07;46.95;;;16.75;;
82806;SDS011;72563;44.816;20.484;2024-01-11T03:37:33;49.88;;;17.02;;
82806;SDS011;72563;44.816;20.484;2024-01-11T03:39:59;47.75;;;18.17;;
82806;SDS011;72563;44.816;20.484;2024-01-11T03:42:25;45.08;;;18.75;;
82806;SDS011;72563;44.816;20.484;2024-01-11T03:44:51;52.47;;;19.02;;
82806;SDS011;72563;44.816;20.484;2024-01-11T03:47:16;47.38;;;17.90;;
82806;SDS011;72563;44.816;20.484;2024-01-11T03:49:42;47.83;;;17.55;;
82806;SDS011;72563;44.816;20.484;2024-01-11T03:52:07;44.45;;;17.58;;
82806;SDS011;72563;44.816;20.484;2024-01-11T03:54:33;46.33;;;18.92;;
82806;SDS011;72563;44.816;20.484;2024-01-11T03:56:58;44.47;;;16.80;;
82806;SDS011;72563;44.816;20.484;2024-01-11T03:59:24;42.45;;;15.95;;
82806;SDS011;72563;44.816;20.484;2024-01-11T04:01:51;37.30;;;16.15;;
82806;SDS011;72563;44.816;20.484;2024-01-11T04:04:17;39.35;;;15.80;;
82806;SDS011;72563;44.816;20.484;2024-01-11T04:06:43;47.38;;;17.75;;
82806;SDS011;72563;44.816;20.484;2024-01-11T04:09:08;45.28;;;17.08;;
82806;SDS011;72563;44.816;20.484;2024-01-11T04:11:34;43.80;;;18.63;;
82806;SDS011;72563;44.816;20.484;2024-01-11T04:13:59;42.65;;;17.17;;
82806;SDS011;72563;44.816;20.484;2024-01-11T04:16:25;48.25;;;18.58;;
82806;SDS011;72563;44.816;20.484;2024-01-11T04:18:51;40.38;;;15.77;;
82806;SDS011;72563;44.816;20.484;2024-01-11T04:21:20;37.33;;;14.80;;
82806;SDS011;72563;44.816;20.484;2024-01-11T04:23:48;43.33;;;16.40;;
82806;SDS011;72563;44.816;20.484;2024-01-11T04:26:13;32.80;;;14.05;;
82806;SDS011;72563;44.816;20.484;2024-01-11T04:28:39;31.85;;;13.85;;
82806;SDS011;72563;44.816;20.484;2024-01-11T04:31:04;33.42;;;15.18;;
82806;SDS011;72563;44.816;20.484;2024-01-11T04:33:30;33.22;;;14.43;;
82806;SDS011;72563;44.816;20.484;2024-01-11T04:35:56;36.85;;;15.80;;
82806;SDS011;72563;44.816;20.484;2024-01-11T04:38:21;33.92;;;14.10;;
82806;SDS011;72563;44.816;20.484;2024-01-11T04:40:47;37.58;;;15.73;;
82806;SDS011;72563;44.816;20.484;2024-01-11T04:43:12;34.75;;;14.88;;
82806;SDS011;72563;44.816;20.484;2024-01-11T04:45:38;34.47;;;13.68;;
82806;SDS011;72563;44.816;20.484;2024-01-11T04:48:03;37.55;;;16.35;;
82806;SDS011;72563;44.816;20.484;2024-01-11T04:50:29;39.05;;;15.50;;
82806;SDS011;72563;44.816;20.484;2024-01-11T04:52:54;35.67;;;17.08;;
82806;SDS011;72563;44.816;20.484;2024-01-11T04:55:20;40.05;;;15.07;;
82806;SDS011;72563;44.816;20.484;2024-01-11T04:57:46;39.83;;;16.40;;
82806;SDS011;72563;44.816;20.484;2024-01-11T05:00:12;43.83;;;16.42;;
82806;SDS011;72563;44.816;20.484;2024-01-11T05:02:37;43.83;;;17.95;;
82806;SDS011;72563;44.816;20.484;2024-01-11T05:05:03;39.40;;;17.83;;
82806;SDS011;72563;44.816;20.484;2024-01-11T05:07:29;40.13;;;15.27;;
82806;SDS011;72563;44.816;20.484;2024-01-11T05:09:54;50.58;;;19.13;;
82806;SDS011;72563;44.816;20.484;2024-01-11T05:12:20;52.08;;;20.35;;
82806;SDS011;72563;44.816;20.484;2024-01-11T05:14:46;45.85;;;18.95;;
82806;SDS011;72563;44.816;20.484;2024-01-11T05:17:12;50.38;;;19.23;;
82806;SDS011;72563;44.816;20.484;2024-01-11T05:19:38;55.70;;;21.40;;
82806;SDS011;72563;44.816;20.484;2024-01-11T05:22:03;50.35;;;20.73;;
82806;SDS011;72563;44.816;20.484;2024-01-11T05:24:29;52.97;;;20.25;;
82806;SDS011;72563;44.816;20.484;2024-01-11T05:26:55;42.85;;;18.30;;
82806;SDS011;72563;44.816;20.484;2024-01-11T05:29:20;47.53;;;17.60;;
82806;SDS011;72563;44.816;20.484;2024-01-11T05:31:46;48.30;;;18.90;;
82806;SDS011;72563;44.816;20.484;2024-01-11T05:34:12;48.85;;;20.67;;
82806;SDS011;72563;44.816;20.484;2024-01-11T05:36:38;54.75;;;20.90;;
82806;SDS011;72563;44.816;20.484;2024-01-11T05:39:03;48.95;;;20.17;;
82806;SDS011;72563;44.816;20.484;2024-01-11T05:41:29;42.42;;;17.35;;
82806;SDS011;72563;44.816;20.484;2024-01-11T05:43:55;44.08;;;19.05;;
82806;SDS011;72563;44.816;20.484;2024-01-11T05:46:20;53.95;;;20.08;;
82806;SDS011;72563;44.816;20.484;2024-01-11T05:48:46;68.15;;;25.90;;
82806;SDS011;72563;44.816;20.484;2024-01-11T05:51:12;63.17;;;24.83;;
82806;SDS011;72563;44.816;20.484;2024-01-11T05:53:37;60.53;;;24.67;;
82806;SDS011;72563;44.816;20.484;2024-01-11T05:56:09;64.07;;;23.90;;
82806;SDS011;72563;44.816;20.484;2024-01-11T05:58:35;53.88;;;21.30;;
82806;SDS011;72563;44.816;20.484;2024-01-11T06:03:29;58.90;;;20.27;;
82806;SDS011;72563;44.816;20.484;2024-01-11T06:05:59;56.33;;;21.45;;
82806;SDS011;72563;44.816;20.484;2024-01-11T06:08:25;58.28;;;23.45;;
82806;SDS011;72563;44.816;20.484;2024-01-11T06:10:50;69.72;;;25.70;;
82806;SDS011;72563;44.816;20.484;2024-01-11T06:13:17;60.13;;;25.33;;
82806;SDS011;72563;44.816;20.484;2024-01-11T06:15:43;58.60;;;24.75;;
82806;SDS011;72563;44.816;20.484;2024-01-11T06:18:09;62.08;;;25.42;;
82806;SDS011;72563;44.816;20.484;2024-01-11T06:20:34;61.53;;;24.55;;
82806;SDS011;72563;44.816;20.484;2024-01-11T06:23:00;65.03;;;24.23;;
82806;SDS011;72563;44.816;20.484;2024-01-11T06:25:25;65.40;;;25.27;;
82806;SDS011;72563;44.816;20.484;2024-01-11T06:27:51;59.17;;;24.50;;
82806;SDS011;72563;44.816;20.484;2024-01-11T06:30:16;66.63;;;25.48;;
82806;SDS011;72563;44.816;20.484;2024-01-11T06:32:42;61.70;;;24.83;;
82806;SDS011;72563;44.816;20.484;2024-01-11T06:35:08;52.72;;;21.15;;
82806;SDS011;72563;44.816;20.484;2024-01-11T06:37:34;56.17;;;22.08;;
82806;SDS011;72563;44.816;20.484;2024-01-11T06:40:00;55.30;;;21.98;;
82806;SDS011;72563;44.816;20.484;2024-01-11T06:42:25;53.55;;;21.58;;
82806;SDS011;72563;44.816;20.484;2024-01-11T06:44:51;58.45;;;20.90;;
82806;SDS011;72563;44.816;20.484;2024-01-11T06:47:16;48.38;;;20.52;;
82806;SDS011;72563;44.816;20.484;2024-01-11T06:49:42;47.80;;;19.33;;
82806;SDS011;72563;44.816;20.484;2024-01-11T06:52:07;46.53;;;18.95;;
82806;SDS011;72563;44.816;20.484;2024-01-11T06:54:34;40.03;;;16.73;;
82806;SDS011;72563;44.816;20.484;2024-01-11T06:56:59;49.47;;;20.67;;
82806;SDS011;72563;44.816;20.484;2024-01-11T06:59:25;46.22;;;18.00;;
82806;SDS011;72563;44.816;20.484;2024-01-11T07:01:50;50.08;;;19.05;;
82806;SDS011;72563;44.816;20.484;2024-01-11T07:04:16;46.30;;;19.55;;
82806;SDS011;72563;44.816;20.484;2024-01-11T07:06:42;71.18;;;28.17;;
82806;SDS011;72563;44.816;20.484;2024-01-11T07:09:07;148.85;;;53.38;;
82806;SDS011;72563;44.816;20.484;2024-01-11T07:11:33;95.00;;;34.55;;
82806;SDS011;72563;44.816;20.484;2024-01-11T07:13:58;50.30;;;19.60;;
82806;SDS011;72563;44.816;20.484;2024-01-11T07:16:24;43.42;;;19.00;;
82806;SDS011;72563;44.816;20.484;2024-01-11T07:18:50;45.83;;;19.98;;
82806;SDS011;72563;44.816;20.484;2024-01-11T07:21:21;51.08;;;21.20;;
82806;SDS011;72563;44.816;20.484;2024-01-11T07:23:55;48.42;;;19.63;;
82806;SDS011;72563;44.816;20.484;2024-01-11T07:26:22;39.08;;;17.80;;
82806;SDS011;72563;44.816;20.484;2024-01-11T07:28:48;46.15;;;18.33;;
82806;SDS011;72563;44.816;20.484;2024-01-11T07:31:14;48.10;;;18.10;;
82806;SDS011;72563;44.816;20.484;2024-01-11T07:33:39;48.25;;;19.73;;
82806;SDS011;72563;44.816;20.484;2024-01-11T07:36:05;54.08;;;21.73;;
82806;SDS011;72563;44.816;20.484;2024-01-11T07:38:31;42.97;;;18.75;;
82806;SDS011;72563;44.816;20.484;2024-01-11T07:40:57;43.72;;;17.42;;
82806;SDS011;72563;44.816;20.484;2024-01-11T07:43:22;106.60;;;35.22;;
82806;SDS011;72563;44.816;20.484;2024-01-11T07:45:48;86.50;;;30.30;;
82806;SDS011;72563;44.816;20.484;2024-01-11T07:48:14;83.63;;;25.60;;
82806;SDS011;72563;44.816;20.484;2024-01-11T07:50:39;58.15;;;21.90;;
82806;SDS011;72563;44.816;20.484;2024-01-11T07:53:05;57.08;;;21.30;;
82806;SDS011;72563;44.816;20.484;2024-01-11T07:55:30;98.07;;;30.80;;
82806;SDS011;72563;44.816;20.484;2024-01-11T07:57:57;136.20;;;38.10;;
82806;SDS011;72563;44.816;20.484;2024-01-11T08:00:22;111.70;;;34.88;;
82806;SDS011;72563;44.816;20.484;2024-01-11T08:02:48;66.65;;;25.30;;
82806;SDS011;72563;44.816;20.484;2024-01-11T08:05:14;50.35;;;20.23;;
82806;SDS011;72563;44.816;20.484;2024-01-11T08:07:40;46.17;;;18.33;;
82806;SDS011;72563;44.816;20.484;2024-01-11T08:10:07;46.60;;;20.35;;
82806;SDS011;72563;44.816;20.484;2024-01-11T08:12:34;48.45;;;21.27;;
82806;SDS011;72563;44.816;20.484;2024-01-11T08:15:01;49.05;;;20.25;;
82806;SDS011;72563;44.816;20.484;2024-01-11T08:17:26;51.40;;;20.20;;
82806;SDS011;72563;44.816;20.484;2024-01-11T08:19:52;51.72;;;21.15;;
82806;SDS011;72563;44.816;20.484;2024-01-11T08:22:17;50.50;;;20.08;;
82806;SDS011;72563;44.816;20.484;2024-01-11T08:24:43;49.08;;;19.90;;
82806;SDS011;72563;44.816;20.484;2024-01-11T08:27:08;49.67;;;19.17;;
82806;SDS011;72563;44.816;20.484;2024-01-11T08:29:34;46.63;;;20.13;;
82806;SDS011;72563;44.816;20.484;2024-01-11T08:32:00;49.75;;;18.83;;
82806;SDS011;72563;44.816;20.484;2024-01-11T08:34:29;52.92;;;21.40;;
82806;SDS011;72563;44.816;20.484;2024-01-11T08:36:55;51.28;;;21.50;;
82806;SDS011;72563;44.816;20.484;2024-01-11T08:39:20;49.75;;;20.65;;
82806;SDS011;72563;44.816;20.484;2024-01-11T08:41:47;54.45;;;21.58;;
82806;SDS011;72563;44.816;20.484;2024-01-11T08:44:13;51.10;;;21.42;;
82806;SDS011;72563;44.816;20.484;2024-01-11T08:46:38;46.85;;;19.48;;
82806;SDS011;72563;44.816;20.484;2024-01-11T08:49:04;50.55;;;19.27;;
82806;SDS011;72563;44.816;20.484;2024-01-11T08:51:29;50.90;;;20.10;;
82806;SDS011;72563;44.816;20.484;2024-01-11T08:53:55;50.42;;;19.95;;
82806;SDS011;72563;44.816;20.484;2024-01-11T08:56:21;51.40;;;19.60;;
82806;SDS011;72563;44.816;20.484;2024-01-11T08:58:47;50.80;;;20.63;;
82806;SDS011;72563;44.816;20.484;2024-01-11T09:01:13;55.45;;;20.65;;
82806;SDS011;72563;44.816;20.484;2024-01-11T09:03:39;64.80;;;25.10;;
82806;SDS011;72563;44.816;20.484;2024-01-11T09:06:05;58.78;;;22.55;;
82806;SDS011;72563;44.816;20.484;2024-01-11T09:08:31;54.97;;;22.70;;
82806;SDS011;72563;44.816;20.484;2024-01-11T09:10:57;86.97;;;36.17;;
82806;SDS011;72563;44.816;20.484;2024-01-11T09:13:26;84.00;;;37.03;;
82806;SDS011;72563;44.816;20.484;2024-01-11T09:15:52;59.65;;;24.60;;
82806;SDS011;72563;44.816;20.484;2024-01-11T09:18:19;50.30;;;19.60;;
82806;SDS011;72563;44.816;20.484;2024-01-11T09:20:44;60.13;;;21.73;;
82806;SDS011;72563;44.816;20.484;2024-01-11T09:23:12;53.08;;;20.55;;
82806;SDS011;72563;44.816;20.484;2024-01-11T09:25:38;49.13;;;19.40;;
82806;SDS011;72563;44.816;20.484;2024-01-11T09:28:04;60.20;;;22.35;;
82806;SDS011;72563;44.816;20.484;2024-01-11T09:30:30;59.67;;;22.77;;
82806;SDS011;72563;44.816;20.484;2024-01-11T09:32:55;46.75;;;20.52;;
82806;SDS011;72563;44.816;20.484;2024-01-11T09:35:21;54.80;;;20.63;;
82806;SDS011;72563;44.816;20.484;2024-01-11T09:37:51;48.20;;;21.17;;
82806;SDS011;72563;44.816;20.484;2024-01-11T09:40:19;49.75;;;21.50;;
82806;SDS011;72563;44.816;20.484;2024-01-11T09:42:46;48.72;;;19.92;;
82806;SDS011;72563;44.816;20.484;2024-01-11T09:45:17;53.55;;;21.80;;
82806;SDS011;72563;44.816;20.484;2024-01-11T09:47:43;51.05;;;19.73;;
82806;SDS011;72563;44.816;20.484;2024-01-11T09:52:47;53.40;;;19.63;;
82806;SDS011;72563;44.816;20.484;2024-01-11T09:55:14;49.03;;;19.10;;
82806;SDS011;72563;44.816;20.484;2024-01-11T09:57:41;53.75;;;18.92;;
82806;SDS011;72563;44.816;20.484;2024-01-11T10:00:13;49.10;;;18.88;;
82806;SDS011;72563;44.816;20.484;2024-01-11T10:02:41;42.45;;;19.05;;
82806;SDS011;72563;44.816;20.484;2024-01-11T10:05:07;50.15;;;18.52;;
82806;SDS011;72563;44.816;20.484;2024-01-11T10:07:32;43.83;;;18.63;;
82806;SDS011;72563;44.816;20.484;2024-01-11T10:09:59;50.17;;;21.25;;
82806;SDS011;72563;44.816;20.484;2024-01-11T10:12:26;55.92;;;21.42;;
82806;SDS011;72563;44.816;20.484;2024-01-11T10:14:52;51.83;;;20.83;;
82806;SDS011;72563;44.816;20.484;2024-01-11T10:17:18;52.15;;;20.50;;
82806;SDS011;72563;44.816;20.484;2024-01-11T10:19:44;49.72;;;18.65;;
82806;SDS011;72563;44.816;20.484;2024-01-11T10:22:09;32.67;;;13.52;;
82806;SDS011;72563;44.816;20.484;2024-01-11T10:24:38;27.48;;;11.90;;
82806;SDS011;72563;44.816;20.484;2024-01-11T10:27:04;29.83;;;13.50;;
82806;SDS011;72563;44.816;20.484;2024-01-11T10:29:33;33.13;;;16.08;;
82806;SDS011;72563;44.816;20.484;2024-01-11T10:32:02;52.97;;;29.60;;
82806;SDS011;72563;44.816;20.484;2024-01-11T10:34:28;57.83;;;32.28;;
82806;SDS011;72563;44.816;20.484;2024-01-11T10:36:54;54.35;;;30.52;;
82806;SDS011;72563;44.816;20.484;2024-01-11T10:39:22;62.25;;;29.90;;
82806;SDS011;72563;44.816;20.484;2024-01-11T10:41:51;58.78;;;28.45;;
82806;SDS011;72563;44.816;20.484;2024-01-11T10:44:23;57.78;;;26.65;;
82806;SDS011;72563;44.816;20.484;2024-01-11T10:46:54;53.35;;;24.17;;
82806;SDS011;72563;44.816;20.484;2024-01-11T10:49:21;52.33;;;23.88;;
82806;SDS011;72563;44.816;20.484;2024-01-11T10:51:59;64.85;;;26.55;;
82806;SDS011;72563;44.816;20.484;2024-01-11T10:54:27;52.10;;;24.25;;
82806;SDS011;72563;44.816;20.484;2024-01-11T10:56:54;57.22;;;23.13;;
82806;SDS011;72563;44.816;20.484;2024-01-11T10:59:21;53.53;;;22.05;;
82806;SDS011;72563;44.816;20.484;2024-01-11T11:01:53;58.00;;;22.92;;
82806;SDS011;72563;44.816;20.484;2024-01-11T11:04:22;54.55;;;21.08;;
82806;SDS011;72563;44.816;20.484;2024-01-11T11:06:49;54.03;;;22.55;;
82806;SDS011;72563;44.816;20.484;2024-01-11T11:09:16;57.08;;;22.55;;
82806;SDS011;72563;44.816;20.484;2024-01-11T11:11:42;51.05;;;19.13;;
82806;SDS011;72563;44.816;20.484;2024-01-11T11:14:10;52.97;;;20.50;;
82806;SDS011;72563;44.816;20.484;2024-01-11T11:16:39;46.63;;;19.30;;
82806;SDS011;72563;44.816;20.484;2024-01-11T11:19:04;48.97;;;20.00;;
82806;SDS011;72563;44.816;20.484;2024-01-11T11:21:31;49.42;;;20.10;;
82806;SDS011;72563;44.816;20.484;2024-01-11T11:23:57;47.80;;;20.70;;
82806;SDS011;72563;44.816;20.484;2024-01-11T11:26:22;51.13;;;19.90;;
82806;SDS011;72563;44.816;20.484;2024-01-11T11:28:51;55.38;;;18.60;;
82806;SDS011;72563;44.816;20.484;2024-01-11T11:34:03;52.05;;;20.55;;
82806;SDS011;72563;44.816;20.484;2024-01-11T11:36:30;40.92;;;16.02;;
82806;SDS011;72563;44.816;20.484;2024-01-11T11:38:59;47.08;;;19.73;;
82806;SDS011;72563;44.816;20.484;2024-01-11T11:41:31;50.58;;;19.25;;
82806;SDS011;72563;44.816;20.484;2024-01-11T11:44:03;57.65;;;20.27;;
82806;SDS011;72563;44.816;20.484;2024-01-11T11:46:30;51.97;;;19.27;;
82806;SDS011;72563;44.816;20.484;2024-01-11T11:48:57;52.92;;;20.73;;
82806;SDS011;72563;44.816;20.484;2024-01-11T11:51:23;53.05;;;19.63;;
82806;SDS011;72563;44.816;20.484;2024-01-11T11:53:49;54.33;;;19.48;;
82806;SDS011;72563;44.816;20.484;2024-01-11T11:56:17;47.10;;;17.58;;
82806;SDS011;72563;44.816;20.484;2024-01-11T11:58:43;50.67;;;19.35;;
82806;SDS011;72563;44.816;20.484;2024-01-11T12:01:11;46.75;;;17.30;;
82806;SDS011;72563;44.816;20.484;2024-01-11T12:03:38;45.05;;;17.35;;
82806;SDS011;72563;44.816;20.484;2024-01-11T12:06:07;52.03;;;19.23;;
82806;SDS011;72563;44.816;20.484;2024-01-11T12:08:34;46.83;;;18.92;;
82806;SDS011;72563;44.816;20.484;2024-01-11T12:11:00;52.33;;;19.48;;
82806;SDS011;72563;44.816;20.484;2024-01-11T12:13:26;47.85;;;20.13;;
82806;SDS011;72563;44.816;20.484;2024-01-11T12:15:52;48.22;;;18.52;;
82806;SDS011;72563;44.816;20.484;2024-01-11T12:18:18;47.25;;;18.38;;
82806;SDS011;72563;44.816;20.484;2024-01-11T12:20:44;37.72;;;13.95;;
82806;SDS011;72563;44.816;20.484;2024-01-11T12:23:11;31.23;;;13.15;;
82806;SDS011;72563;44.816;20.484;2024-01-11T12:25:40;42.53;;;19.23;;
82806;SDS011;72563;44.816;20.484;2024-01-11T12:28:06;46.17;;;23.30;;
82806;SDS011;72563;44.816;20.484;2024-01-11T12:30:32;43.70;;;23.23;;
82806;SDS011;72563;44.816;20.484;2024-01-11T12:32:58;47.45;;;24.30;;
82806;SDS011;72563;44.816;20.484;2024-01-11T12:35:26;44.65;;;22.02;;
82806;SDS011;72563;44.816;20.484;2024-01-11T12:37:58;45.38;;;21.45;;
82806;SDS011;72563;44.816;20.484;2024-01-11T12:40:24;52.78;;;24.58;;
82806;SDS011;72563;44.816;20.484;2024-01-11T12:42:52;54.90;;;24.83;;
82806;SDS011;72563;44.816;20.484;2024-01-11T12:45:21;54.50;;;24.70;;
82806;SDS011;72563;44.816;20.484;2024-01-11T12:47:47;72.70;;;28.38;;
82806;SDS011;72563;44.816;20.484;2024-01-11T12:50:13;66.13;;;28.35;;
82806;SDS011;72563;44.816;20.484;2024-01-11T12:52:39;69.07;;;26.83;;
82806;SDS011;72563;44.816;20.484;2024-01-11T12:55:07;65.65;;;25.55;;
82806;SDS011;72563;44.816;20.484;2024-01-11T12:57:34;65.47;;;27.10;;
82806;SDS011;72563;44.816;20.484;2024-01-11T13:00:10;51.90;;;23.23;;
82806;SDS011;72563;44.816;20.484;2024-01-11T13:02:36;42.10;;;17.20;;
82806;SDS011;72563;44.816;20.484;2024-01-11T13:05:01;47.72;;;18.60;;
82806;SDS011;72563;44.816;20.484;2024-01-11T13:07:28;45.63;;;17.70;;
82806;SDS011;72563;44.816;20.484;2024-01-11T13:09:54;47.38;;;19.10;;
82806;SDS011;72563;44.816;20.484;2024-01-11T13:12:19;44.28;;;17.83;;
82806;SDS011;72563;44.816;20.484;2024-01-11T13:14:48;49.67;;;19.20;;
82806;SDS011;72563;44.816;20.484;2024-01-11T13:17:13;44.72;;;19.20;;
82806;SDS011;72563;44.816;20.484;2024-01-11T13:19:39;42.88;;;16.92;;
82806;SDS011;72563;44.816;20.484;2024-01-11T13:22:05;45.92;;;16.92;;
82806;SDS011;72563;44.816;20.484;2024-01-11T13:24:30;47.67;;;17.58;;
82806;SDS011;72563;44.816;20.484;2024-01-11T13:26:56;46.67;;;17.63;;
82806;SDS011;72563;44.816;20.484;2024-01-11T13:29:22;48.40;;;19.33;;
82806;SDS011;72563;44.816;20.484;2024-01-11T13:31:47;53.42;;;18.52;;
82806;SDS011;72563;44.816;20.484;2024-01-11T13:34:13;49.55;;;17.77;;
82806;SDS011;72563;44.816;20.484;2024-01-11T13:36:38;52.35;;;19.25;;
82806;SDS011;72563;44.816;20.484;2024-01-11T13:39:04;47.33;;;17.63;;
82806;SDS011;72563;44.816;20.484;2024-01-11T13:41:32;50.70;;;17.85;;
82806;SDS011;72563;44.816;20.484;2024-01-11T13:43:58;46.20;;;17.92;;
82806;SDS011;72563;44.816;20.484;2024-01-11T13:46:23;35.75;;;15.35;;
82806;SDS011;72563;44.816;20.484;2024-01-11T13:48:49;44.28;;;19.00;;
82806;SDS011;72563;44.816;20.484;2024-01-11T13:51:14;47.25;;;16.35;;
82806;SDS011;72563;44.816;20.484;2024-01-11T13:53:40;45.88;;;17.45;;
82806;SDS011;72563;44.816;20.484;2024-01-11T13:56:06;47.72;;;18.08;;
82806;SDS011;72563;44.816;20.484;2024-01-11T13:58:32;42.60;;;17.95;;
82806;SDS011;72563;44.816;20.484;2024-01-11T14:00:58;41.53;;;17.63;;
82806;SDS011;72563;44.816;20.484;2024-01-11T14:03:23;46.38;;;18.50;;
82806;SDS011;72563;44.816;20.484;2024-01-11T14:05:49;45.85;;;17.90;;
82806;SDS011;72563;44.816;20.484;2024-01-11T14:08:15;44.22;;;16.35;;
82806;SDS011;72563;44.816;20.484;2024-01-11T14:10:40;51.08;;;18.77;;
82806;SDS011;72563;44.816;20.484;2024-01-11T14:13:06;45.55;;;16.38;;